Terminal Aerodrome Forecast
Issued by NWS Louisville, KY

Home | Current Version | Previous Version | Text Only | Print | Product List | Glossary Off
Versions: 1 2 3 4 5 6 7 8 9 10 11 12

077
FTUS43 KLMK 271720
TAFBWG
TAF
KBWG 271720Z 2718/2818 VRB04KT P6SM SCT035
     FM271900 VRB05KT P6SM VCTS BKN035CB
      TEMPO 2720/2723 3SM -SHRA BKN025
     FM272300 VRB05KT P6SM FEW035
     FM280900 00000KT 4SM BR SCT150=

USA.gov is the U.S. government's official web portal to all federal, state and local government web resources and services.